CheckWX is a tool to help pilots better visualize weather data.  It is not intended as a substitute for an official pre-flight weather briefing.

13:24:27 UTC

KMCB METAR
Mc Comb / Pike County / John E Lewis Field Airport
Mc Comb, Mississippi, USA
Current

31 mins ago

KMCB 031253Z AUTO 00000KT 10SM CLR 25/23 A2998 RMK AO2 SLP145 T02500228
Observed
Jul-3 @ 12:53 UTC
Visibility
10 SM
Flight Rules
VFR
Cloud Levels
  • Clear skies
Temperature
25°C / 77°F
Dewpoint
23°C / 73°F
Humidity
89%
Altimeter
29.98" Hg
Pressure
1015.22 hPa
Previous

2 hours ago

KMCB 031153Z AUTO 34003KT 10SM CLR 24/23 A2997 RMK AO2 SLP144 60000 70073 T02390228 10239 20228 53005
Observed
Jul-3 @ 11:53 UTC
Wind
  • 340° at 3 KTS
Visibility
10 SM
Flight Rules
VFR
Cloud Levels
  • Clear skies
Temperature
24°C / 75°F
Dewpoint
23°C / 73°F
Humidity
94%
Altimeter
29.97" Hg
Pressure
1014.92 hPa
24 Hour Rain
0.73"
Previous

3 hours ago

KMCB 031053Z AUTO 00000KT 10SM SCT080 23/22 A2997 RMK AO2 SLP141 T02330222
Observed
Jul-3 @ 10:53 UTC
Visibility
10 SM
Flight Rules
VFR
Cloud Levels
  • Scattered at 8,000' AGL
Temperature
23°C / 73°F
Dewpoint
22°C / 72°F
Humidity
94%
Altimeter
29.97" Hg
Pressure
1014.92 hPa